sensor_id;sensor_type;location;lat;lon;timestamp;temperature;humidity
34572;DHT22;20808;48.974;8.452;2022-10-16T00:00:45;16.00;99.90
34572;DHT22;20808;48.974;8.452;2022-10-16T00:03:12;16.10;99.90
34572;DHT22;20808;48.974;8.452;2022-10-16T00:05:39;16.20;99.90
34572;DHT22;20808;48.974;8.452;2022-10-16T00:08:07;16.20;99.90
34572;DHT22;20808;48.974;8.452;2022-10-16T00:10:34;16.10;99.90
34572;DHT22;20808;48.974;8.452;2022-10-16T00:13:01;16.10;99.90
34572;DHT22;20808;48.974;8.452;2022-10-16T00:15:27;16.10;99.90
34572;DHT22;20808;48.974;8.452;2022-10-16T00:17:55;16.10;99.90
34572;DHT22;20808;48.974;8.452;2022-10-16T00:20:22;16.10;99.90
34572;DHT22;20808;48.974;8.452;2022-10-16T00:22:49;16.20;99.90
34572;DHT22;20808;48.974;8.452;2022-10-16T00:25:16;16.10;99.90
34572;DHT22;20808;48.974;8.452;2022-10-16T00:27:43;16.00;99.90
34572;DHT22;20808;48.974;8.452;2022-10-16T00:30:10;16.10;99.90
34572;DHT22;20808;48.974;8.452;2022-10-16T00:32:36;16.00;99.90
34572;DHT22;20808;48.974;8.452;2022-10-16T00:35:05;16.00;99.90
34572;DHT22;20808;48.974;8.452;2022-10-16T00:37:32;15.90;99.90
34572;DHT22;20808;48.974;8.452;2022-10-16T00:39:59;15.80;99.90
34572;DHT22;20808;48.974;8.452;2022-10-16T00:42:26;15.80;99.90
34572;DHT22;20808;48.974;8.452;2022-10-16T00:44:54;15.80;99.90
34572;DHT22;20808;48.974;8.452;2022-10-16T00:47:25;15.80;99.90
34572;DHT22;20808;48.974;8.452;2022-10-16T00:49:57;15.70;99.90
34572;DHT22;20808;48.974;8.452;2022-10-16T00:52:26;15.70;99.90
34572;DHT22;20808;48.974;8.452;2022-10-16T00:54:53;15.70;99.90
34572;DHT22;20808;48.974;8.452;2022-10-16T00:57:20;15.70;99.90
34572;DHT22;20808;48.974;8.452;2022-10-16T00:59:47;15.70;99.90
34572;DHT22;20808;48.974;8.452;2022-10-16T01:02:16;15.80;99.90
34572;DHT22;20808;48.974;8.452;2022-10-16T01:04:46;15.80;99.90
34572;DHT22;20808;48.974;8.452;2022-10-16T01:07:18;15.90;99.90
34572;DHT22;20808;48.974;8.452;2022-10-16T01:10:03;15.90;99.90
34572;DHT22;20808;48.974;8.452;2022-10-16T01:12:38;15.90;99.90
34572;DHT22;20808;48.974;8.452;2022-10-16T01:15:11;16.00;99.90
34572;DHT22;20808;48.974;8.452;2022-10-16T01:17:45;16.00;99.90
34572;DHT22;20808;48.974;8.452;2022-10-16T01:20:21;15.90;99.90
34572;DHT22;20808;48.974;8.452;2022-10-16T01:23:04;15.90;99.90
34572;DHT22;20808;48.974;8.452;2022-10-16T01:25:54;15.90;99.90
34572;DHT22;20808;48.974;8.452;2022-10-16T01:28:27;15.80;99.90
34572;DHT22;20808;48.974;8.452;2022-10-16T01:30:58;15.80;99.90
34572;DHT22;20808;48.974;8.452;2022-10-16T01:33:30;15.70;99.90
34572;DHT22;20808;48.974;8.452;2022-10-16T01:36:05;15.70;99.90
34572;DHT22;20808;48.974;8.452;2022-10-16T01:38:35;15.70;99.90
34572;DHT22;20808;48.974;8.452;2022-10-16T01:41:06;15.70;99.90
34572;DHT22;20808;48.974;8.452;2022-10-16T01:43:38;15.80;99.90
34572;DHT22;20808;48.974;8.452;2022-10-16T01:46:08;15.90;99.90
34572;DHT22;20808;48.974;8.452;2022-10-16T01:48:36;15.90;99.90
34572;DHT22;20808;48.974;8.452;2022-10-16T01:51:07;16.00;99.90
34572;DHT22;20808;48.974;8.452;2022-10-16T01:53:35;16.00;99.90
34572;DHT22;20808;48.974;8.452;2022-10-16T01:56:04;16.10;99.90
34572;DHT22;20808;48.974;8.452;2022-10-16T01:58:36;16.10;99.90
34572;DHT22;20808;48.974;8.452;2022-10-16T02:01:05;16.20;99.90
34572;DHT22;20808;48.974;8.452;2022-10-16T02:03:34;16.30;99.90
34572;DHT22;20808;48.974;8.452;2022-10-16T02:06:02;16.30;99.90
34572;DHT22;20808;48.974;8.452;2022-10-16T02:08:30;16.20;99.90
34572;DHT22;20808;48.974;8.452;2022-10-16T02:10:58;16.10;99.90
34572;DHT22;20808;48.974;8.452;2022-10-16T02:13:29;15.90;99.90
34572;DHT22;20808;48.974;8.452;2022-10-16T02:15:59;15.90;99.90
34572;DHT22;20808;48.974;8.452;2022-10-16T02:18:26;15.90;99.90
34572;DHT22;20808;48.974;8.452;2022-10-16T02:20:59;15.90;99.90
34572;DHT22;20808;48.974;8.452;2022-10-16T02:23:35;15.80;99.90
34572;DHT22;20808;48.974;8.452;2022-10-16T02:26:08;15.90;99.90
34572;DHT22;20808;48.974;8.452;2022-10-16T02:28:40;16.00;99.90
34572;DHT22;20808;48.974;8.452;2022-10-16T02:31:11;16.00;99.90
34572;DHT22;20808;48.974;8.452;2022-10-16T02:33:40;16.00;99.90
34572;DHT22;20808;48.974;8.452;2022-10-16T02:36:09;16.00;99.90
34572;DHT22;20808;48.974;8.452;2022-10-16T02:38:36;15.90;99.90
34572;DHT22;20808;48.974;8.452;2022-10-16T02:41:04;16.00;99.90
34572;DHT22;20808;48.974;8.452;2022-10-16T02:43:31;16.00;99.90
34572;DHT22;20808;48.974;8.452;2022-10-16T02:45:59;15.90;99.90
34572;DHT22;20808;48.974;8.452;2022-10-16T02:48:27;16.00;99.90
34572;DHT22;20808;48.974;8.452;2022-10-16T02:50:53;15.90;99.90
34572;DHT22;20808;48.974;8.452;2022-10-16T02:53:20;15.80;99.90
34572;DHT22;20808;48.974;8.452;2022-10-16T02:55:47;15.80;99.90
34572;DHT22;20808;48.974;8.452;2022-10-16T02:58:14;15.70;99.90
34572;DHT22;20808;48.974;8.452;2022-10-16T03:00:41;15.70;99.90
34572;DHT22;20808;48.974;8.452;2022-10-16T03:03:07;15.60;99.90
34572;DHT22;20808;48.974;8.452;2022-10-16T03:05:35;15.60;99.90
34572;DHT22;20808;48.974;8.452;2022-10-16T03:08:02;15.60;99.90
34572;DHT22;20808;48.974;8.452;2022-10-16T03:10:29;15.60;99.90
34572;DHT22;20808;48.974;8.452;2022-10-16T03:12:56;15.50;99.90
34572;DHT22;20808;48.974;8.452;2022-10-16T03:15:23;15.40;99.90
34572;DHT22;20808;48.974;8.452;2022-10-16T03:17:49;15.30;99.90
34572;DHT22;20808;48.974;8.452;2022-10-16T03:20:16;15.30;99.90
34572;DHT22;20808;48.974;8.452;2022-10-16T03:22:44;15.20;99.90
34572;DHT22;20808;48.974;8.452;2022-10-16T03:25:11;15.10;99.90
34572;DHT22;20808;48.974;8.452;2022-10-16T03:27:38;15.10;99.90
34572;DHT22;20808;48.974;8.452;2022-10-16T03:30:05;15.10;99.90
34572;DHT22;20808;48.974;8.452;2022-10-16T03:32:32;15.10;99.90
34572;DHT22;20808;48.974;8.452;2022-10-16T03:34:59;15.10;99.90
34572;DHT22;20808;48.974;8.452;2022-10-16T03:37:26;15.10;99.90
34572;DHT22;20808;48.974;8.452;2022-10-16T03:39:54;15.20;99.90
34572;DHT22;20808;48.974;8.452;2022-10-16T03:42:21;15.20;99.90
34572;DHT22;20808;48.974;8.452;2022-10-16T03:44:48;15.30;99.90
34572;DHT22;20808;48.974;8.452;2022-10-16T03:47:14;15.30;99.90
34572;DHT22;20808;48.974;8.452;2022-10-16T03:49:46;15.30;99.90
34572;DHT22;20808;48.974;8.452;2022-10-16T03:52:12;15.40;99.90
34572;DHT22;20808;48.974;8.452;2022-10-16T03:54:39;15.40;99.90
34572;DHT22;20808;48.974;8.452;2022-10-16T03:57:07;15.30;99.90
34572;DHT22;20808;48.974;8.452;2022-10-16T03:59:34;15.30;99.90
34572;DHT22;20808;48.974;8.452;2022-10-16T04:02:01;15.30;99.90
34572;DHT22;20808;48.974;8.452;2022-10-16T04:04:28;15.30;99.90
34572;DHT22;20808;48.974;8.452;2022-10-16T04:06:54;15.40;99.90
34572;DHT22;20808;48.974;8.452;2022-10-16T04:09:21;15.40;99.90
34572;DHT22;20808;48.974;8.452;2022-10-16T04:11:48;15.40;99.90
34572;DHT22;20808;48.974;8.452;2022-10-16T04:14:16;15.50;99.90
34572;DHT22;20808;48.974;8.452;2022-10-16T04:16:43;15.50;99.90
34572;DHT22;20808;48.974;8.452;2022-10-16T04:19:10;15.50;99.90
34572;DHT22;20808;48.974;8.452;2022-10-16T04:21:37;15.50;99.90
34572;DHT22;20808;48.974;8.452;2022-10-16T04:24:04;15.50;99.90
34572;DHT22;20808;48.974;8.452;2022-10-16T04:26:30;15.40;99.90
34572;DHT22;20808;48.974;8.452;2022-10-16T04:28:57;15.30;99.90
34572;DHT22;20808;48.974;8.452;2022-10-16T04:31:25;15.30;99.90
34572;DHT22;20808;48.974;8.452;2022-10-16T04:33:52;15.30;99.90
34572;DHT22;20808;48.974;8.452;2022-10-16T04:36:19;15.30;99.90
34572;DHT22;20808;48.974;8.452;2022-10-16T04:38:46;15.40;99.90
34572;DHT22;20808;48.974;8.452;2022-10-16T04:41:12;15.40;99.90
34572;DHT22;20808;48.974;8.452;2022-10-16T04:43:39;15.40;99.90
34572;DHT22;20808;48.974;8.452;2022-10-16T04:46:06;15.40;99.90
34572;DHT22;20808;48.974;8.452;2022-10-16T04:48:34;15.40;99.90
34572;DHT22;20808;48.974;8.452;2022-10-16T04:51:01;15.50;99.90
34572;DHT22;20808;48.974;8.452;2022-10-16T04:53:27;15.50;99.90
34572;DHT22;20808;48.974;8.452;2022-10-16T04:55:54;15.50;99.90
34572;DHT22;20808;48.974;8.452;2022-10-16T04:58:21;15.40;99.90
34572;DHT22;20808;48.974;8.452;2022-10-16T05:00:48;15.40;99.90
34572;DHT22;20808;48.974;8.452;2022-10-16T05:03:15;15.40;99.90
34572;DHT22;20808;48.974;8.452;2022-10-16T05:05:44;15.40;99.90
34572;DHT22;20808;48.974;8.452;2022-10-16T05:08:12;15.50;99.90
34572;DHT22;20808;48.974;8.452;2022-10-16T05:10:40;15.50;99.90
34572;DHT22;20808;48.974;8.452;2022-10-16T05:13:07;15.60;99.90
34572;DHT22;20808;48.974;8.452;2022-10-16T05:15:34;15.60;99.90
34572;DHT22;20808;48.974;8.452;2022-10-16T05:18:01;15.50;99.90
34572;DHT22;20808;48.974;8.452;2022-10-16T05:20:28;15.50;99.90
34572;DHT22;20808;48.974;8.452;2022-10-16T05:22:56;15.60;99.90
34572;DHT22;20808;48.974;8.452;2022-10-16T05:25:23;15.60;99.90
34572;DHT22;20808;48.974;8.452;2022-10-16T05:27:50;15.70;99.90
34572;DHT22;20808;48.974;8.452;2022-10-16T05:30:17;15.70;99.90
34572;DHT22;20808;48.974;8.452;2022-10-16T05:32:46;15.70;99.90
34572;DHT22;20808;48.974;8.452;2022-10-16T05:35:13;15.70;99.90
34572;DHT22;20808;48.974;8.452;2022-10-16T05:37:40;15.70;99.90
34572;DHT22;20808;48.974;8.452;2022-10-16T05:40:09;15.60;99.90
34572;DHT22;20808;48.974;8.452;2022-10-16T05:42:36;15.60;99.90
34572;DHT22;20808;48.974;8.452;2022-10-16T05:45:03;15.60;99.90
34572;DHT22;20808;48.974;8.452;2022-10-16T05:47:30;15.60;99.90
34572;DHT22;20808;48.974;8.452;2022-10-16T05:49:57;15.70;99.90
34572;DHT22;20808;48.974;8.452;2022-10-16T05:52:24;15.60;99.90
34572;DHT22;20808;48.974;8.452;2022-10-16T05:54:50;15.60;99.90
34572;DHT22;20808;48.974;8.452;2022-10-16T05:57:19;15.70;99.90
34572;DHT22;20808;48.974;8.452;2022-10-16T05:59:45;15.60;99.90
34572;DHT22;20808;48.974;8.452;2022-10-16T06:02:13;15.60;99.90
34572;DHT22;20808;48.974;8.452;2022-10-16T06:04:40;15.60;99.90
34572;DHT22;20808;48.974;8.452;2022-10-16T06:07:07;15.60;99.90
34572;DHT22;20808;48.974;8.452;2022-10-16T06:09:34;15.60;99.90
34572;DHT22;20808;48.974;8.452;2022-10-16T06:12:00;15.70;99.90
34572;DHT22;20808;48.974;8.452;2022-10-16T06:14:28;15.70;99.90
34572;DHT22;20808;48.974;8.452;2022-10-16T06:16:55;15.70;99.90
34572;DHT22;20808;48.974;8.452;2022-10-16T06:19:22;15.70;99.90
34572;DHT22;20808;48.974;8.452;2022-10-16T06:21:49;15.70;99.90
34572;DHT22;20808;48.974;8.452;2022-10-16T06:24:16;15.70;99.90
34572;DHT22;20808;48.974;8.452;2022-10-16T06:26:43;15.80;99.90
34572;DHT22;20808;48.974;8.452;2022-10-16T06:29:09;15.80;99.90
34572;DHT22;20808;48.974;8.452;2022-10-16T06:31:37;15.80;99.90
34572;DHT22;20808;48.974;8.452;2022-10-16T06:34:04;15.80;99.90
34572;DHT22;20808;48.974;8.452;2022-10-16T06:36:35;15.80;99.90
34572;DHT22;20808;48.974;8.452;2022-10-16T06:39:02;15.90;99.90
34572;DHT22;20808;48.974;8.452;2022-10-16T06:41:29;16.00;99.90
34572;DHT22;20808;48.974;8.452;2022-10-16T06:43:56;16.00;99.90
34572;DHT22;20808;48.974;8.452;2022-10-16T06:46:24;16.00;99.90
34572;DHT22;20808;48.974;8.452;2022-10-16T06:48:53;16.10;99.90
34572;DHT22;20808;48.974;8.452;2022-10-16T06:51:21;16.10;99.90
34572;DHT22;20808;48.974;8.452;2022-10-16T06:53:49;16.10;99.90
34572;DHT22;20808;48.974;8.452;2022-10-16T06:56:19;16.10;99.90
34572;DHT22;20808;48.974;8.452;2022-10-16T06:58:46;16.20;99.90
34572;DHT22;20808;48.974;8.452;2022-10-16T07:01:14;16.20;99.90
34572;DHT22;20808;48.974;8.452;2022-10-16T07:03:42;16.20;99.90
34572;DHT22;20808;48.974;8.452;2022-10-16T07:06:13;16.30;99.90
34572;DHT22;20808;48.974;8.452;2022-10-16T07:08:41;16.30;99.90
34572;DHT22;20808;48.974;8.452;2022-10-16T07:11:10;16.50;99.90
34572;DHT22;20808;48.974;8.452;2022-10-16T07:13:38;16.60;99.90
34572;DHT22;20808;48.974;8.452;2022-10-16T07:16:06;16.70;99.90
34572;DHT22;20808;48.974;8.452;2022-10-16T07:18:33;16.90;99.90
34572;DHT22;20808;48.974;8.452;2022-10-16T07:21:05;17.00;99.90
34572;DHT22;20808;48.974;8.452;2022-10-16T07:23:34;17.10;99.90
34572;DHT22;20808;48.974;8.452;2022-10-16T07:26:01;17.10;99.90
34572;DHT22;20808;48.974;8.452;2022-10-16T07:28:28;17.20;99.90
34572;DHT22;20808;48.974;8.452;2022-10-16T07:30:55;17.30;99.90
34572;DHT22;20808;48.974;8.452;2022-10-16T07:33:21;17.50;99.90
34572;DHT22;20808;48.974;8.452;2022-10-16T07:35:49;17.70;99.90
34572;DHT22;20808;48.974;8.452;2022-10-16T07:38:16;17.80;99.90
34572;DHT22;20808;48.974;8.452;2022-10-16T07:40:45;17.90;99.90
34572;DHT22;20808;48.974;8.452;2022-10-16T07:43:12;17.90;99.90
34572;DHT22;20808;48.974;8.452;2022-10-16T07:45:47;17.90;99.90
34572;DHT22;20808;48.974;8.452;2022-10-16T07:48:15;18.00;99.90
34572;DHT22;20808;48.974;8.452;2022-10-16T07:50:42;18.10;99.90
34572;DHT22;20808;48.974;8.452;2022-10-16T07:53:09;18.20;99.90
34572;DHT22;20808;48.974;8.452;2022-10-16T07:55:36;18.20;99.90
34572;DHT22;20808;48.974;8.452;2022-10-16T07:58:04;18.20;99.90
34572;DHT22;20808;48.974;8.452;2022-10-16T08:00:31;18.30;99.90
34572;DHT22;20808;48.974;8.452;2022-10-16T08:02:59;18.40;99.90
34572;DHT22;20808;48.974;8.452;2022-10-16T08:05:29;18.40;99.90
34572;DHT22;20808;48.974;8.452;2022-10-16T08:07:57;18.30;99.90
34572;DHT22;20808;48.974;8.452;2022-10-16T08:10:25;18.40;99.90
34572;DHT22;20808;48.974;8.452;2022-10-16T08:12:53;18.40;99.90
34572;DHT22;20808;48.974;8.452;2022-10-16T08:15:21;18.40;99.90
34572;DHT22;20808;48.974;8.452;2022-10-16T08:17:55;18.70;99.90
34572;DHT22;20808;48.974;8.452;2022-10-16T08:20:22;19.00;99.90
34572;DHT22;20808;48.974;8.452;2022-10-16T08:22:48;19.10;99.90
34572;DHT22;20808;48.974;8.452;2022-10-16T08:25:15;19.30;1.00
34572;DHT22;20808;48.974;8.452;2022-10-16T08:27:42;19.40;1.00
34572;DHT22;20808;48.974;8.452;2022-10-16T08:30:10;19.50;1.00
34572;DHT22;20808;48.974;8.452;2022-10-16T08:32:39;19.60;1.00
34572;DHT22;20808;48.974;8.452;2022-10-16T08:35:07;19.60;1.00
34572;DHT22;20808;48.974;8.452;2022-10-16T08:37:34;19.80;1.00
34572;DHT22;20808;48.974;8.452;2022-10-16T08:40:01;19.80;1.00
34572;DHT22;20808;48.974;8.452;2022-10-16T08:42:37;19.80;1.00
34572;DHT22;20808;48.974;8.452;2022-10-16T08:48:09;20.20;1.00
34572;DHT22;20808;48.974;8.452;2022-10-16T08:50:40;20.30;1.00
34572;DHT22;20808;48.974;8.452;2022-10-16T08:53:11;20.30;99.90
34572;DHT22;20808;48.974;8.452;2022-10-16T08:55:43;20.40;1.00
34572;DHT22;20808;48.974;8.452;2022-10-16T08:58:13;20.70;99.90
34572;DHT22;20808;48.974;8.452;2022-10-16T09:00:41;21.10;1.00
34572;DHT22;20808;48.974;8.452;2022-10-16T09:03:17;21.30;1.00
34572;DHT22;20808;48.974;8.452;2022-10-16T09:05:57;21.80;99.90
34572;DHT22;20808;48.974;8.452;2022-10-16T09:08:35;22.10;99.90
34572;DHT22;20808;48.974;8.452;2022-10-16T09:11:08;22.20;99.90
34572;DHT22;20808;48.974;8.452;2022-10-16T09:13:46;22.60;97.10
34572;DHT22;20808;48.974;8.452;2022-10-16T09:16:18;23.10;1.00
34572;DHT22;20808;48.974;8.452;2022-10-16T09:18:54;23.00;1.00
34572;DHT22;20808;48.974;8.452;2022-10-16T09:21:24;23.10;1.00
34572;DHT22;20808;48.974;8.452;2022-10-16T09:23:52;22.90;1.00
34572;DHT22;20808;48.974;8.452;2022-10-16T09:26:20;22.70;1.00
34572;DHT22;20808;48.974;8.452;2022-10-16T09:28:47;22.60;1.00
34572;DHT22;20808;48.974;8.452;2022-10-16T09:31:17;22.40;1.00
34572;DHT22;20808;48.974;8.452;2022-10-16T09:33:46;22.00;25.20
34572;DHT22;20808;48.974;8.452;2022-10-16T09:36:16;21.90;99.90
34572;DHT22;20808;48.974;8.452;2022-10-16T09:38:43;21.70;1.00
34572;DHT22;20808;48.974;8.452;2022-10-16T09:41:16;21.60;1.00
34572;DHT22;20808;48.974;8.452;2022-10-16T09:43:48;21.70;1.00
34572;DHT22;20808;48.974;8.452;2022-10-16T09:46:27;21.80;1.00
34572;DHT22;20808;48.974;8.452;2022-10-16T09:48:56;22.00;1.00
34572;DHT22;20808;48.974;8.452;2022-10-16T09:51:27;22.30;1.00
34572;DHT22;20808;48.974;8.452;2022-10-16T09:53:56;22.30;1.00
34572;DHT22;20808;48.974;8.452;2022-10-16T09:56:25;22.40;1.00
34572;DHT22;20808;48.974;8.452;2022-10-16T09:58:54;22.40;1.00
34572;DHT22;20808;48.974;8.452;2022-10-16T10:01:24;22.30;1.00
34572;DHT22;20808;48.974;8.452;2022-10-16T10:03:55;21.90;99.90
34572;DHT22;20808;48.974;8.452;2022-10-16T10:06:29;22.20;1.00
34572;DHT22;20808;48.974;8.452;2022-10-16T10:08:59;22.60;1.00
34572;DHT22;20808;48.974;8.452;2022-10-16T10:11:43;22.70;1.00
34572;DHT22;20808;48.974;8.452;2022-10-16T10:14:30;22.60;1.00
34572;DHT22;20808;48.974;8.452;2022-10-16T10:17:11;22.50;1.00
34572;DHT22;20808;48.974;8.452;2022-10-16T10:19:40;22.70;1.00
34572;DHT22;20808;48.974;8.452;2022-10-16T10:22:23;22.70;1.00
34572;DHT22;20808;48.974;8.452;2022-10-16T10:25:18;23.00;1.00
34572;DHT22;20808;48.974;8.452;2022-10-16T10:27:57;23.00;99.90
34572;DHT22;20808;48.974;8.452;2022-10-16T10:30:31;22.60;99.90
34572;DHT22;20808;48.974;8.452;2022-10-16T10:33:12;22.40;1.00
34572;DHT22;20808;48.974;8.452;2022-10-16T10:35:45;22.90;1.00
34572;DHT22;20808;48.974;8.452;2022-10-16T10:38:28;23.30;99.90
34572;DHT22;20808;48.974;8.452;2022-10-16T10:41:05;23.70;99.90
34572;DHT22;20808;48.974;8.452;2022-10-16T10:43:49;24.50;99.90
34572;DHT22;20808;48.974;8.452;2022-10-16T10:46:23;25.60;99.90
34572;DHT22;20808;48.974;8.452;2022-10-16T10:49:10;26.30;99.90
34572;DHT22;20808;48.974;8.452;2022-10-16T10:51:43;26.40;99.90
34572;DHT22;20808;48.974;8.452;2022-10-16T10:54:20;26.90;99.90
34572;DHT22;20808;48.974;8.452;2022-10-16T10:56:50;26.70;99.90
34572;DHT22;20808;48.974;8.452;2022-10-16T10:59:43;26.80;99.90
34572;DHT22;20808;48.974;8.452;2022-10-16T11:02:19;26.70;99.90
34572;DHT22;20808;48.974;8.452;2022-10-16T11:04:58;26.50;99.90
34572;DHT22;20808;48.974;8.452;2022-10-16T11:07:31;26.30;99.90
34572;DHT22;20808;48.974;8.452;2022-10-16T11:10:04;25.70;99.90
34572;DHT22;20808;48.974;8.452;2022-10-16T11:12:39;25.50;99.90
34572;DHT22;20808;48.974;8.452;2022-10-16T11:15:13;25.10;99.90
34572;DHT22;20808;48.974;8.452;2022-10-16T11:17:43;25.30;99.90
34572;DHT22;20808;48.974;8.452;2022-10-16T11:20:15;25.60;99.90
34572;DHT22;20808;48.974;8.452;2022-10-16T11:22:45;25.70;99.90
34572;DHT22;20808;48.974;8.452;2022-10-16T11:25:18;26.10;99.90
34572;DHT22;20808;48.974;8.452;2022-10-16T11:27:50;26.60;99.90
34572;DHT22;20808;48.974;8.452;2022-10-16T11:30:21;26.30;93.70
34572;DHT22;20808;48.974;8.452;2022-10-16T11:33:00;25.60;91.30
34572;DHT22;20808;48.974;8.452;2022-10-16T11:35:39;25.40;85.40
34572;DHT22;20808;48.974;8.452;2022-10-16T11:38:12;25.00;94.20
34572;DHT22;20808;48.974;8.452;2022-10-16T11:40:41;25.50;91.70
34572;DHT22;20808;48.974;8.452;2022-10-16T11:43:13;26.30;83.70
34572;DHT22;20808;48.974;8.452;2022-10-16T11:45:43;26.50;67.60
34572;DHT22;20808;48.974;8.452;2022-10-16T11:48:20;26.70;56.90
34572;DHT22;20808;48.974;8.452;2022-10-16T11:50:51;26.50;48.70
34572;DHT22;20808;48.974;8.452;2022-10-16T11:53:26;26.50;50.50
34572;DHT22;20808;48.974;8.452;2022-10-16T11:55:57;26.50;44.90
34572;DHT22;20808;48.974;8.452;2022-10-16T11:58:27;26.50;38.80
34572;DHT22;20808;48.974;8.452;2022-10-16T12:01:01;26.60;47.40
34572;DHT22;20808;48.974;8.452;2022-10-16T12:03:34;26.50;31.10
34572;DHT22;20808;48.974;8.452;2022-10-16T12:06:13;26.50;28.10
34572;DHT22;20808;48.974;8.452;2022-10-16T12:08:44;25.80;22.40
34572;DHT22;20808;48.974;8.452;2022-10-16T12:11:24;25.80;24.30
34572;DHT22;20808;48.974;8.452;2022-10-16T12:14:05;25.70;29.60
34572;DHT22;20808;48.974;8.452;2022-10-16T12:16:32;25.70;26.10
34572;DHT22;20808;48.974;8.452;2022-10-16T12:19:12;25.20;27.60
34572;DHT22;20808;48.974;8.452;2022-10-16T12:21:40;24.80;28.80
34572;DHT22;20808;48.974;8.452;2022-10-16T12:24:20;24.60;45.20
34572;DHT22;20808;48.974;8.452;2022-10-16T12:26:50;24.60;35.50
34572;DHT22;20808;48.974;8.452;2022-10-16T12:29:26;24.50;38.60
34572;DHT22;20808;48.974;8.452;2022-10-16T12:31:55;24.50;58.80
34572;DHT22;20808;48.974;8.452;2022-10-16T12:34:26;24.50;72.70
34572;DHT22;20808;48.974;8.452;2022-10-16T12:36:54;24.70;60.70
34572;DHT22;20808;48.974;8.452;2022-10-16T12:39:22;24.50;56.50
34572;DHT22;20808;48.974;8.452;2022-10-16T12:42:03;24.80;56.90
34572;DHT22;20808;48.974;8.452;2022-10-16T12:44:33;25.00;68.60
34572;DHT22;20808;48.974;8.452;2022-10-16T12:47:01;25.40;57.30
34572;DHT22;20808;48.974;8.452;2022-10-16T12:49:34;25.60;49.90
34572;DHT22;20808;48.974;8.452;2022-10-16T12:52:02;25.60;45.40
34572;DHT22;20808;48.974;8.452;2022-10-16T12:54:34;25.70;28.90
34572;DHT22;20808;48.974;8.452;2022-10-16T12:57:18;25.70;28.40
34572;DHT22;20808;48.974;8.452;2022-10-16T12:59:52;25.90;26.00
34572;DHT22;20808;48.974;8.452;2022-10-16T13:05:32;26.10;24.40
34572;DHT22;20808;48.974;8.452;2022-10-16T13:08:13;25.80;25.20
34572;DHT22;20808;48.974;8.452;2022-10-16T13:10:55;25.40;27.30
34572;DHT22;20808;48.974;8.452;2022-10-16T13:13:45;25.00;33.60
34572;DHT22;20808;48.974;8.452;2022-10-16T13:16:23;24.90;35.90
34572;DHT22;20808;48.974;8.452;2022-10-16T13:19:01;24.70;41.90
34572;DHT22;20808;48.974;8.452;2022-10-16T13:21:36;24.30;58.70
34572;DHT22;20808;48.974;8.452;2022-10-16T13:24:12;24.30;98.60
34572;DHT22;20808;48.974;8.452;2022-10-16T13:26:46;24.20;99.90
34572;DHT22;20808;48.974;8.452;2022-10-16T13:29:16;24.30;99.90
34572;DHT22;20808;48.974;8.452;2022-10-16T13:31:45;24.50;99.90
34572;DHT22;20808;48.974;8.452;2022-10-16T13:34:15;24.50;99.90
34572;DHT22;20808;48.974;8.452;2022-10-16T13:36:44;24.40;99.90
34572;DHT22;20808;48.974;8.452;2022-10-16T13:39:13;24.30;99.90
34572;DHT22;20808;48.974;8.452;2022-10-16T13:41:40;24.30;99.90
34572;DHT22;20808;48.974;8.452;2022-10-16T13:44:13;24.10;99.90
34572;DHT22;20808;48.974;8.452;2022-10-16T13:46:42;24.00;99.90
34572;DHT22;20808;48.974;8.452;2022-10-16T13:49:13;23.70;99.90
34572;DHT22;20808;48.974;8.452;2022-10-16T13:51:40;23.60;99.90
34572;DHT22;20808;48.974;8.452;2022-10-16T13:54:09;23.40;99.90
34572;DHT22;20808;48.974;8.452;2022-10-16T13:56:38;23.40;1.00
34572;DHT22;20808;48.974;8.452;2022-10-16T13:59:06;23.10;1.00
34572;DHT22;20808;48.974;8.452;2022-10-16T14:01:35;23.00;1.00
34572;DHT22;20808;48.974;8.452;2022-10-16T14:04:09;22.70;99.90
34572;DHT22;20808;48.974;8.452;2022-10-16T14:06:42;22.50;1.00
34572;DHT22;20808;48.974;8.452;2022-10-16T14:09:16;22.30;1.00
34572;DHT22;20808;48.974;8.452;2022-10-16T14:11:48;22.10;99.90
34572;DHT22;20808;48.974;8.452;2022-10-16T14:14:17;21.90;1.00
34572;DHT22;20808;48.974;8.452;2022-10-16T14:16:45;21.90;1.00
34572;DHT22;20808;48.974;8.452;2022-10-16T14:19:19;21.70;99.90
34572;DHT22;20808;48.974;8.452;2022-10-16T14:21:47;21.90;1.00
34572;DHT22;20808;48.974;8.452;2022-10-16T14:24:26;21.90;99.90
34572;DHT22;20808;48.974;8.452;2022-10-16T14:26:53;22.20;1.00
34572;DHT22;20808;48.974;8.452;2022-10-16T14:29:22;22.70;1.00
34572;DHT22;20808;48.974;8.452;2022-10-16T14:31:57;23.40;1.00
34572;DHT22;20808;48.974;8.452;2022-10-16T14:34:28;24.20;1.00
34572;DHT22;20808;48.974;8.452;2022-10-16T14:36:56;24.70;99.90
34572;DHT22;20808;48.974;8.452;2022-10-16T14:39:25;24.80;99.90
34572;DHT22;20808;48.974;8.452;2022-10-16T14:41:54;24.50;99.90
34572;DHT22;20808;48.974;8.452;2022-10-16T14:44:28;24.10;99.90
34572;DHT22;20808;48.974;8.452;2022-10-16T14:46:55;24.00;99.90
34572;DHT22;20808;48.974;8.452;2022-10-16T14:49:23;23.90;99.90
34572;DHT22;20808;48.974;8.452;2022-10-16T14:51:52;23.80;99.90
34572;DHT22;20808;48.974;8.452;2022-10-16T14:54:19;23.80;99.90
34572;DHT22;20808;48.974;8.452;2022-10-16T14:56:48;23.90;99.90
34572;DHT22;20808;48.974;8.452;2022-10-16T14:59:19;23.90;99.90
34572;DHT22;20808;48.974;8.452;2022-10-16T15:01:48;23.80;99.90
34572;DHT22;20808;48.974;8.452;2022-10-16T15:04:15;23.60;99.90
34572;DHT22;20808;48.974;8.452;2022-10-16T15:06:43;23.50;99.90
34572;DHT22;20808;48.974;8.452;2022-10-16T15:09:11;23.40;99.90
34572;DHT22;20808;48.974;8.452;2022-10-16T15:11:38;23.30;1.00
34572;DHT22;20808;48.974;8.452;2022-10-16T15:14:05;23.00;1.00
34572;DHT22;20808;48.974;8.452;2022-10-16T15:16:32;23.00;1.00
34572;DHT22;20808;48.974;8.452;2022-10-16T15:18:59;22.90;1.00
34572;DHT22;20808;48.974;8.452;2022-10-16T15:21:28;22.80;1.00
34572;DHT22;20808;48.974;8.452;2022-10-16T15:23:55;22.70;1.00
34572;DHT22;20808;48.974;8.452;2022-10-16T15:26:24;22.60;1.00
34572;DHT22;20808;48.974;8.452;2022-10-16T15:28:52;22.50;1.00
34572;DHT22;20808;48.974;8.452;2022-10-16T15:31:19;22.50;1.00
34572;DHT22;20808;48.974;8.452;2022-10-16T15:33:49;22.40;99.90
34572;DHT22;20808;48.974;8.452;2022-10-16T15:36:25;22.30;1.00
34572;DHT22;20808;48.974;8.452;2022-10-16T15:38:52;22.10;1.00
34572;DHT22;20808;48.974;8.452;2022-10-16T15:41:19;22.00;1.00
34572;DHT22;20808;48.974;8.452;2022-10-16T15:43:49;21.80;1.00
34572;DHT22;20808;48.974;8.452;2022-10-16T15:46:18;21.60;86.40
34572;DHT22;20808;48.974;8.452;2022-10-16T15:48:46;21.40;1.00
34572;DHT22;20808;48.974;8.452;2022-10-16T15:51:13;21.30;67.00
34572;DHT22;20808;48.974;8.452;2022-10-16T15:53:39;21.10;1.00
34572;DHT22;20808;48.974;8.452;2022-10-16T15:56:08;21.00;99.90